Masuei Maru No31 — JI3555 — position and weather

sailwx.info

Track history (hours):
 
Tides and Currents Weather Stations Pressure Air Temp Water Temp Dewpoint Dewpoint Depression Visibility Wind Speed Wind Dir Waves Ship Positions

Masuei Maru No31

Last reported at 2018-Feb-17 04:48 UTC. Time now 2018-Feb-18 22:27 UTC.
Position N 34°12' E 135°07'.

Length 32 m.

Type: Tug. MMSI: 431300667.

Date/timePositionNaut miles runAvg speedWind from/ knotsBaromVisibWave heightAir tempDewpointWater temp
2018-Feb-17 04:48N 34°12' E 135°07'3 9.7
2018-Feb-17 04:30N 34°09' E 135°07'2 3.9
2018-Feb-17 03:56N 34°07' E 135°08'4 6.3
2018-Feb-17 03:21N 34°11' E 135°07'3 7.6
2018-Feb-17 03:00N 34°13' E 135°09'0 0.0
2018-Feb-15 22:53N 34°13' E 135°09'0 1.1
2018-Feb-15 22:30N 34°13' E 135°09'0 0.9
2018-Feb-15 21:59N 34°13' E 135°08'1 1.4
2018-Feb-15 21:26N 34°13' E 135°07'1 3.0
2018-Feb-15 20:58N 34°13' E 135°09'0 0.0
2018-Feb-15 07:32N 34°13' E 135°09'0 0.0
2018-Feb-15 07:29N 34°13' E 135°09'3 5.4
2018-Feb-15 07:00N 34°11' E 135°07'14 2.8
2018-Feb-15 01:57N 33°58' E 135°03'1 0.1
2018-Feb-14 04:57N 33°56' E 135°02'6 0.5
2018-Feb-13 16:02N 34°02' E 135°04'511.4
2018-Feb-13 15:36N 34°07' E 135°05'111.2
2018-Feb-13 15:30N 34°08' E 135°06'5 9.9
2018-Feb-13 15:00N 34°09' E 135°12'0 0.1
2018-Feb-13 14:28N 34°09' E 135°12'2 4.2
2018-Feb-13 14:00N 34°09' E 135°10'2 0.4
2018-Feb-13 07:41N 34°07' E 135°09'1 7.5
2018-Feb-13 07:30N 34°07' E 135°07'11 4.4
2018-Feb-13 05:01N 33°57' E 135°05'1 6.3
2018-Feb-13 04:47N 33°56' E 135°03'6 1.3
2018-Feb-13 00:13N 34°02' E 135°04'410.8
2018-Feb-12 23:51N 34°06' E 135°05'410.9
2018-Feb-12 23:30N 34°10' E 135°06'4 8.0
2018-Feb-12 23:00N 34°13' E 135°09'0 0.0
2018-Feb-12 07:48N 34°13' E 135°09'2 7.2
2018-Feb-12 07:30N 34°14' E 135°06'1 1.7
2018-Feb-12 06:59N 34°14' E 135°06'3 5.7
2018-Feb-12 06:30N 34°13' E 135°09'0 0.0
2018-Feb-12 06:00N 34°13' E 135°09'0 0.0
2018-Feb-12 05:24N 34°13' E 135°09'0 0.0
2018-Feb-12 05:00N 34°13' E 135°09'0 0.0
2018-Feb-12 04:30N 34°13' E 135°09'0 0.0
2018-Feb-12 04:00N 34°13' E 135°09'2 4.4
2018-Feb-12 03:30N 34°12' E 135°07'5 9.2
2018-Feb-12 03:00N 34°07' E 135°07'0 0.7
2018-Feb-12 02:30N 34°07' E 135°06'510.1
2018-Feb-12 02:00N 34°12' E 135°07'2 0.1
2018-Feb-11 11:57N 34°13' E 135°09'2 4.3
2018-Feb-11 11:30N 34°12' E 135°07'5 5.8
2018-Feb-11 10:36N 34°07' E 135°08'1 8.0
2018-Feb-11 10:28N 34°08' E 135°07'510.6
2018-Feb-11 09:58N 34°13' E 135°07'1 0.4
2018-Feb-11 06:20N 34°13' E 135°09'2 6.4
2018-Feb-11 06:01N 34°12' E 135°07'5 9.4
2018-Feb-11 05:27N 34°07' E 135°07'0 0.0
2018-Feb-11 04:36N 34°07' E 135°07'0 0.1
2018-Feb-11 04:24N 34°07' E 135°07'1 1.4
2018-Feb-11 03:59N 34°07' E 135°06'2 1.5
2018-Feb-11 02:48N 34°07' E 135°04'2 5.4
2018-Feb-11 02:30N 34°09' E 135°05'510.8
2018-Feb-11 02:00N 34°13' E 135°09'1 1.7
2018-Feb-11 01:28N 34°12' E 135°08'1 1.8
2018-Feb-11 01:00N 34°13' E 135°09'0 0.2
2018-Feb-11 00:28N 34°13' E 135°09'0 0.0
2018-Feb-10 23:55N 34°13' E 135°09'0 0.0
2018-Feb-10 23:28N 34°13' E 135°09'0 0.0
2018-Feb-10 22:58N 34°13' E 135°09'1 1.8
2018-Feb-10 22:28N 34°12' E 135°08'1 2.5
2018-Feb-10 22:00N 34°13' E 135°07'  
2018-Feb-08 01:30N 34°12' E 135°07'  
Track history (hours):
 
Tides and Currents Weather Stations Pressure Air Temp Water Temp Dewpoint Dewpoint Depression Visibility Wind Speed Wind Dir Waves Ship Positions

Masuei Maru No31

Last reported at 2018-Feb-17 04:48 UTC. Time now 2018-Feb-18 22:27 UTC.
Position N 34°12' E 135°07'.

Length 32 m.

Type: Tug. MMSI: 431300667.

Date/timePositionNaut miles runAvg speedWind from/ knotsBaromVisibWave heightAir tempDewpointWater temp
2018-Feb-17 04:48N 34°12' E 135°07'3 9.7
2018-Feb-17 04:30N 34°09' E 135°07'2 3.9
2018-Feb-17 03:56N 34°07' E 135°08'4 6.3
2018-Feb-17 03:21N 34°11' E 135°07'3 7.6
2018-Feb-17 03:00N 34°13' E 135°09'0 0.0
2018-Feb-15 22:53N 34°13' E 135°09'0 1.1
2018-Feb-15 22:30N 34°13' E 135°09'0 0.9
2018-Feb-15 21:59N 34°13' E 135°08'1 1.4
2018-Feb-15 21:26N 34°13' E 135°07'1 3.0
2018-Feb-15 20:58N 34°13' E 135°09'0 0.0
2018-Feb-15 07:32N 34°13' E 135°09'0 0.0
2018-Feb-15 07:29N 34°13' E 135°09'3 5.4
2018-Feb-15 07:00N 34°11' E 135°07'14 2.8
2018-Feb-15 01:57N 33°58' E 135°03'1 0.1
2018-Feb-14 04:57N 33°56' E 135°02'6 0.5
2018-Feb-13 16:02N 34°02' E 135°04'511.4
2018-Feb-13 15:36N 34°07' E 135°05'111.2
2018-Feb-13 15:30N 34°08' E 135°06'5 9.9
2018-Feb-13 15:00N 34°09' E 135°12'0 0.1
2018-Feb-13 14:28N 34°09' E 135°12'2 4.2
2018-Feb-13 14:00N 34°09' E 135°10'2 0.4
2018-Feb-13 07:41N 34°07' E 135°09'1 7.5
2018-Feb-13 07:30N 34°07' E 135°07'11 4.4
2018-Feb-13 05:01N 33°57' E 135°05'1 6.3
2018-Feb-13 04:47N 33°56' E 135°03'6 1.3
2018-Feb-13 00:13N 34°02' E 135°04'410.8
2018-Feb-12 23:51N 34°06' E 135°05'410.9
2018-Feb-12 23:30N 34°10' E 135°06'4 8.0
2018-Feb-12 23:00N 34°13' E 135°09'0 0.0
2018-Feb-12 07:48N 34°13' E 135°09'2 7.2
2018-Feb-12 07:30N 34°14' E 135°06'1 1.7
2018-Feb-12 06:59N 34°14' E 135°06'3 5.7
2018-Feb-12 06:30N 34°13' E 135°09'0 0.0
2018-Feb-12 06:00N 34°13' E 135°09'0 0.0
2018-Feb-12 05:24N 34°13' E 135°09'0 0.0
2018-Feb-12 05:00N 34°13' E 135°09'0 0.0
2018-Feb-12 04:30N 34°13' E 135°09'0 0.0
2018-Feb-12 04:00N 34°13' E 135°09'2 4.4
2018-Feb-12 03:30N 34°12' E 135°07'5 9.2
2018-Feb-12 03:00N 34°07' E 135°07'0 0.7
2018-Feb-12 02:30N 34°07' E 135°06'510.1
2018-Feb-12 02:00N 34°12' E 135°07'2 0.1
2018-Feb-11 11:57N 34°13' E 135°09'2 4.3
2018-Feb-11 11:30N 34°12' E 135°07'5 5.8
2018-Feb-11 10:36N 34°07' E 135°08'1 8.0
2018-Feb-11 10:28N 34°08' E 135°07'510.6
2018-Feb-11 09:58N 34°13' E 135°07'1 0.4
2018-Feb-11 06:20N 34°13' E 135°09'2 6.4
2018-Feb-11 06:01N 34°12' E 135°07'5 9.4
2018-Feb-11 05:27N 34°07' E 135°07'0 0.0
2018-Feb-11 04:36N 34°07' E 135°07'0 0.1
2018-Feb-11 04:24N 34°07' E 135°07'1 1.4
2018-Feb-11 03:59N 34°07' E 135°06'2 1.5
2018-Feb-11 02:48N 34°07' E 135°04'2 5.4
2018-Feb-11 02:30N 34°09' E 135°05'510.8
2018-Feb-11 02:00N 34°13' E 135°09'1 1.7
2018-Feb-11 01:28N 34°12' E 135°08'1 1.8
2018-Feb-11 01:00N 34°13' E 135°09'0 0.2
2018-Feb-11 00:28N 34°13' E 135°09'0 0.0
2018-Feb-10 23:55N 34°13' E 135°09'0 0.0
2018-Feb-10 23:28N 34°13' E 135°09'0 0.0
2018-Feb-10 22:58N 34°13' E 135°09'1 1.8
2018-Feb-10 22:28N 34°12' E 135°08'1 2.5
2018-Feb-10 22:00N 34°13' E 135°07'  
2018-Feb-08 01:30N 34°12' E 135°07'  

Dump ship's entire track history